createdAt,value
2024-02-24T00:01:43.528Z,96807.13
2024-02-24T00:04:10.046Z,96801.13
2024-02-24T00:06:36.713Z,96794.28
2024-02-24T00:09:03.438Z,96797.78
2024-02-24T00:11:30.180Z,96795.19
2024-02-24T00:13:56.855Z,96805.56
2024-02-24T00:16:23.461Z,96809.91
2024-02-24T00:18:50.064Z,96807.44
2024-02-24T00:21:16.792Z,96809.09
2024-02-24T00:23:43.389Z,96798.81
2024-02-24T00:26:10.394Z,96795.19
2024-02-24T00:28:36.929Z,96787.38
2024-02-24T00:31:03.601Z,96794.00
2024-02-24T00:33:30.213Z,96790.66
2024-02-24T00:35:56.889Z,96780.31
2024-02-24T00:38:23.528Z,96768.97
2024-02-24T00:40:50.142Z,96767.28
2024-02-24T00:43:16.659Z,96741.22
2024-02-24T00:45:43.222Z,96743.53
2024-02-24T00:48:09.976Z,96725.69
2024-02-24T00:50:36.657Z,96728.75
2024-02-24T00:53:03.382Z,96740.38
2024-02-24T00:55:29.882Z,96742.69
2024-02-24T00:57:56.484Z,96732.97
2024-02-24T01:00:23.055Z,96740.44
2024-02-24T01:02:49.607Z,96731.03
2024-02-24T01:05:16.472Z,96730.09
2024-02-24T01:07:43.085Z,96724.72
2024-02-24T01:10:10.224Z,96721.22
2024-02-24T01:12:37.032Z,96740.97
2024-02-24T01:15:04.051Z,96742.81
2024-02-24T01:17:30.905Z,96758.66
2024-02-24T01:19:57.521Z,96753.78
2024-02-24T01:22:25.322Z,96748.91
2024-02-24T01:24:53.318Z,96751.66
2024-02-24T01:27:20.057Z,96748.16
2024-02-24T01:29:46.649Z,96754.34
2024-02-24T01:32:13.424Z,96760.66
2024-02-24T01:34:40.109Z,96751.13
2024-02-24T01:37:06.773Z,96751.31
2024-02-24T01:39:33.562Z,96758.97
2024-02-24T01:42:00.150Z,96765.09
2024-02-24T01:44:26.827Z,96766.66
2024-02-24T01:46:53.405Z,96764.97
2024-02-24T01:49:20.015Z,96763.97
2024-02-24T01:51:47.675Z,96769.97
2024-02-24T01:54:14.574Z,96770.81
2024-02-24T01:56:44.131Z,96782.81
2024-02-24T01:59:11.879Z,96778.88
2024-02-24T02:01:39.004Z,96778.03
2024-02-24T02:04:05.718Z,96796.13
2024-02-24T02:06:35.779Z,96805.56
2024-02-24T02:09:02.423Z,96799.38
2024-02-24T02:11:29.188Z,96810.56
2024-02-24T02:13:55.908Z,96803.81
2024-02-24T02:16:23.917Z,96794.19
2024-02-24T02:18:50.561Z,96785.50
2024-02-24T02:21:18.698Z,96784.03
2024-02-24T02:23:45.382Z,96795.03
2024-02-24T02:26:14.839Z,96799.38
2024-02-24T02:28:42.024Z,96799.47
2024-02-24T02:31:08.712Z,96800.56
2024-02-24T02:33:35.489Z,96805.75
2024-02-24T02:36:02.512Z,96806.50
2024-02-24T02:38:29.121Z,96794.41
2024-02-24T02:40:55.729Z,96800.38
2024-02-24T02:43:22.425Z,96775.34
2024-02-24T02:45:49.006Z,96794.28
2024-02-24T02:48:15.613Z,96799.66
2024-02-24T02:50:42.289Z,96792.53
2024-02-24T02:53:08.882Z,96812.41
2024-02-24T02:55:35.456Z,96816.66
2024-02-24T02:58:02.254Z,96834.13
2024-02-24T03:00:28.816Z,96838.50
2024-02-24T03:02:55.440Z,96846.41
2024-02-24T03:05:22.202Z,96847.16
2024-02-24T03:07:48.867Z,96847.25
2024-02-24T03:10:15.496Z,96850.69
2024-02-24T03:12:42.161Z,96853.28
2024-02-24T03:15:09.315Z,96860.19
2024-02-24T03:17:36.126Z,96874.88
2024-02-24T03:20:06.085Z,96881.75
2024-02-24T03:22:34.316Z,96883.28
2024-02-24T03:25:00.948Z,96885.16
2024-02-24T03:27:27.475Z,96880.06
2024-02-24T03:29:54.083Z,96870.53
2024-02-24T03:32:20.704Z,96840.53
2024-02-24T03:34:47.294Z,96843.66
2024-02-24T03:37:13.839Z,96850.69
2024-02-24T03:39:40.424Z,96856.59
2024-02-24T03:42:06.951Z,96880.81
2024-02-24T03:44:33.573Z,96886.06
2024-02-24T03:47:00.289Z,96886.25
2024-02-24T03:49:26.785Z,96884.59
2024-02-24T03:51:53.362Z,96892.28
2024-02-24T03:54:19.965Z,96882.72
2024-02-24T03:56:46.554Z,96891.44
2024-02-24T03:59:13.292Z,96908.47
2024-02-24T04:01:41.788Z,96916.13
2024-02-24T04:04:08.425Z,96899.84
2024-02-24T04:06:35.043Z,96885.22
2024-02-24T04:09:01.680Z,96881.19
2024-02-24T04:11:28.300Z,96876.84
2024-02-24T04:13:54.900Z,96883.66
2024-02-24T04:16:21.506Z,96894.97
2024-02-24T04:18:48.108Z,96939.94
2024-02-24T04:21:14.979Z,96952.13
2024-02-24T04:23:41.559Z,96969.53
2024-02-24T04:26:08.204Z,96956.94
2024-02-24T04:28:34.824Z,96993.44
2024-02-24T04:31:01.446Z,96986.84
2024-02-24T04:33:28.111Z,96989.69
2024-02-24T04:35:54.751Z,96993.44
2024-02-24T04:38:21.573Z,96977.34
2024-02-24T04:40:48.203Z,96982.88
2024-02-24T04:43:14.750Z,96998.75
2024-02-24T04:45:41.284Z,96998.25
2024-02-24T04:48:08.166Z,97009.00
2024-02-24T04:50:34.748Z,97022.28
2024-02-24T04:53:01.283Z,97013.25
2024-02-24T04:55:27.797Z,97035.09
2024-02-24T04:57:54.395Z,97025.06
2024-02-24T05:00:21.083Z,97038.25
2024-02-24T05:02:47.687Z,97032.78
2024-02-24T05:05:14.383Z,97055.34
2024-02-24T05:07:41.121Z,97050.69
2024-02-24T05:10:08.477Z,97056.19
2024-02-24T05:12:36.113Z,97063.31
2024-02-24T05:15:03.038Z,97072.28
2024-02-24T05:17:29.740Z,97077.78
2024-02-24T05:19:56.793Z,97081.56
2024-02-24T05:22:23.328Z,97093.09
2024-02-24T05:24:50.285Z,97089.16
2024-02-24T05:27:16.884Z,97101.44
2024-02-24T05:29:47.953Z,97106.84
2024-02-24T05:32:17.830Z,97116.53
2024-02-24T05:34:44.838Z,97115.09
2024-02-24T05:37:11.662Z,97122.97
2024-02-24T05:39:39.278Z,97126.81
2024-02-24T05:42:06.964Z,97134.78
2024-02-24T05:44:33.564Z,97143.69
2024-02-24T05:47:00.133Z,97149.03
2024-02-24T05:49:26.674Z,97153.41
2024-02-24T05:51:53.389Z,97160.53
2024-02-24T05:54:20.047Z,97160.75
2024-02-24T05:56:46.635Z,97172.03
2024-02-24T05:59:13.445Z,97175.66
2024-02-24T06:01:40.021Z,97192.94
2024-02-24T06:04:06.600Z,97197.44
2024-02-24T06:06:33.426Z,97206.25
2024-02-24T06:09:00.068Z,97202.13
2024-02-24T06:11:26.646Z,97213.50
2024-02-24T06:13:53.929Z,97225.66
2024-02-24T06:16:20.710Z,97229.19
2024-02-24T06:18:47.455Z,97243.13
2024-02-24T06:21:14.181Z,97243.28
2024-02-24T06:23:40.938Z,97258.03
2024-02-24T06:26:07.572Z,97262.34
2024-02-24T06:28:34.320Z,97252.28
2024-02-24T06:31:00.827Z,97259.25
2024-02-24T06:33:27.504Z,97261.03
2024-02-24T06:35:54.252Z,97260.22
2024-02-24T06:38:20.952Z,97270.75
2024-02-24T06:40:47.572Z,97277.63
2024-02-24T06:43:14.286Z,97283.81
2024-02-24T06:45:40.966Z,97273.66
2024-02-24T06:48:08.021Z,97278.88
2024-02-24T06:50:34.975Z,97276.38
2024-02-24T06:53:01.828Z,97272.22
2024-02-24T06:55:28.505Z,97282.50
2024-02-24T06:57:55.368Z,97291.25
2024-02-24T07:00:23.155Z,97283.72
2024-02-24T07:02:51.143Z,97297.38
2024-02-24T07:05:17.754Z,97287.22
2024-02-24T07:07:44.354Z,97290.53
2024-02-24T07:10:11.030Z,97288.03
2024-02-24T07:12:40.878Z,97296.53
2024-02-24T07:15:10.163Z,97305.22
2024-02-24T07:17:36.847Z,97304.38
2024-02-24T07:20:04.382Z,97309.59
2024-02-24T07:22:30.966Z,97318.19
2024-02-24T07:24:57.495Z,97325.91
2024-02-24T07:27:24.150Z,97330.19
2024-02-24T07:29:50.893Z,97329.34
2024-02-24T07:32:17.575Z,97332.84
2024-02-24T07:34:44.202Z,97333.66
2024-02-24T07:37:10.895Z,97338.81
2024-02-24T07:39:37.528Z,97344.81
2024-02-24T07:42:04.328Z,97348.22
2024-02-24T07:44:30.825Z,97360.25
2024-02-24T07:46:57.385Z,97370.56
2024-02-24T07:49:23.912Z,97372.25
2024-02-24T07:51:52.216Z,97364.53
2024-02-24T07:54:18.902Z,97356.75
2024-02-24T07:56:45.550Z,97362.66
2024-02-24T07:59:12.167Z,97360.13
2024-02-24T08:01:38.759Z,97365.19
2024-02-24T08:04:05.396Z,97377.09
2024-02-24T08:06:32.929Z,97375.38
2024-02-24T08:09:00.790Z,97373.53
2024-02-24T08:11:31.240Z,97382.06
2024-02-24T08:13:57.997Z,97394.00
2024-02-24T08:16:24.808Z,97397.28
2024-02-24T08:18:51.715Z,97402.31
2024-02-24T08:21:18.431Z,97405.56
2024-02-24T08:23:45.267Z,97405.44
2024-02-24T08:26:12.316Z,97417.22
2024-02-24T08:28:38.993Z,97414.38
2024-02-24T08:31:05.625Z,97418.53
2024-02-24T08:33:32.450Z,97423.56
2024-02-24T08:35:59.228Z,97436.25
2024-02-24T08:38:28.895Z,97426.66
2024-02-24T08:40:56.307Z,97423.16
2024-02-24T08:43:22.880Z,97428.19
2024-02-24T08:45:49.421Z,97429.03
2024-02-24T08:48:16.251Z,97434.91
2024-02-24T08:50:42.872Z,97446.72
2024-02-24T08:53:09.637Z,97446.53
2024-02-24T08:55:36.245Z,97447.19
2024-02-24T08:58:02.886Z,97448.75
2024-02-24T09:00:29.491Z,97449.38
2024-02-24T09:02:56.163Z,97456.16
2024-02-24T09:05:22.875Z,97446.63
2024-02-24T09:07:49.633Z,97455.00
2024-02-24T09:10:16.410Z,97455.72
2024-02-24T09:12:43.049Z,97463.25
2024-02-24T09:15:09.792Z,97460.47
2024-02-24T09:17:36.554Z,97460.41
2024-02-24T09:20:04.024Z,97458.53
2024-02-24T09:22:30.662Z,97468.72
2024-02-24T09:24:57.229Z,97472.94
2024-02-24T09:27:23.725Z,97477.91
2024-02-24T09:29:50.326Z,97493.25
2024-02-24T09:32:19.027Z,97497.41
2024-02-24T09:34:46.053Z,97492.94
2024-02-24T09:37:12.892Z,97497.13
2024-02-24T09:39:41.783Z,97505.56
2024-02-24T09:42:10.898Z,97509.72
2024-02-24T09:44:38.104Z,97506.16
2024-02-24T09:47:05.981Z,97511.19
2024-02-24T09:49:32.852Z,97515.25
2024-02-24T09:52:00.757Z,97526.34
2024-02-24T09:54:30.392Z,97522.84
2024-02-24T09:56:57.687Z,97526.16
2024-02-24T09:59:25.500Z,97531.97
2024-02-24T10:01:52.067Z,97536.06
2024-02-24T10:04:19.655Z,97538.53
2024-02-24T10:06:46.345Z,97541.06
2024-02-24T10:09:13.543Z,97546.16
2024-02-24T10:11:40.999Z,97545.94
2024-02-24T10:14:08.263Z,97552.59
2024-02-24T10:16:36.128Z,97555.97
2024-02-24T10:19:05.337Z,97554.13
2024-02-24T10:21:32.654Z,97555.69
2024-02-24T10:23:59.359Z,97552.81
2024-02-24T10:26:26.163Z,97554.50
2024-02-24T10:28:54.330Z,97553.38
2024-02-24T10:31:24.587Z,97551.56
2024-02-24T10:33:53.420Z,97552.28
2024-02-24T10:36:20.178Z,97554.00
2024-02-24T10:38:55.439Z,97558.31
2024-02-24T10:41:26.589Z,97558.09
2024-02-24T10:44:02.551Z,97559.69
2024-02-24T10:46:37.319Z,97569.78
2024-02-24T10:49:05.348Z,97555.84
2024-02-24T10:51:37.948Z,97555.66
2024-02-24T10:54:13.806Z,97561.50
2024-02-24T10:56:41.378Z,97554.53
2024-02-24T10:59:12.257Z,97551.06
2024-02-24T11:01:48.400Z,97549.09
2024-02-24T11:04:17.206Z,97550.63
2024-02-24T11:06:50.117Z,97557.41
2024-02-24T11:09:26.063Z,97555.50
2024-02-24T11:11:53.119Z,97555.38
2024-02-24T11:14:22.685Z,97563.88
2024-02-24T11:16:49.876Z,97566.28
2024-02-24T11:19:49.366Z,97567.00
2024-02-24T11:22:26.029Z,97572.00
2024-02-24T11:25:05.982Z,97574.44
2024-02-24T11:27:37.448Z,97574.34
2024-02-24T11:30:37.039Z,97571.69
2024-02-24T11:33:27.572Z,97572.47
2024-02-24T11:35:56.316Z,97580.06
2024-02-24T11:38:25.426Z,97584.31
2024-02-24T11:40:52.833Z,97577.25
2024-02-24T11:43:20.089Z,97587.53
2024-02-24T11:45:48.279Z,97590.00
2024-02-24T11:48:16.176Z,97585.50
2024-02-24T11:50:43.707Z,97581.16
2024-02-24T11:53:11.628Z,97592.19
2024-02-24T11:55:38.543Z,97585.22
2024-02-24T11:58:09.010Z,97586.88
2024-02-24T12:00:39.336Z,97584.06
2024-02-24T12:03:16.521Z,97587.41
2024-02-24T12:05:44.033Z,97594.13
2024-02-24T12:08:14.182Z,97589.72
2024-02-24T12:10:41.497Z,97592.16
2024-02-24T12:13:11.422Z,97597.03
2024-02-24T12:15:45.266Z,97589.09
2024-02-24T12:18:12.414Z,97601.00
2024-02-24T12:20:43.067Z,97594.81
2024-02-24T12:23:12.056Z,97598.09
2024-02-24T12:25:38.806Z,97603.13
2024-02-24T12:28:06.083Z,97594.44
2024-02-24T12:30:40.374Z,97596.88
2024-02-24T12:33:12.281Z,97594.91
2024-02-24T12:35:41.959Z,97597.25
2024-02-24T12:38:18.025Z,97601.38
2024-02-24T12:40:48.030Z,97601.06
2024-02-24T12:43:14.668Z,97603.56
2024-02-24T12:45:41.252Z,97612.97
2024-02-24T12:48:09.273Z,97613.78
2024-02-24T12:50:36.495Z,97610.16
2024-02-24T12:53:08.191Z,97615.34
2024-02-24T12:55:34.802Z,97616.03
2024-02-24T12:58:01.711Z,97614.28
2024-02-24T13:00:28.391Z,97613.34
2024-02-24T13:02:57.379Z,97613.34
2024-02-24T13:05:24.624Z,97613.34
2024-02-24T13:07:53.045Z,97617.53
2024-02-24T13:10:20.575Z,97621.03
2024-02-24T13:12:47.266Z,97618.38
2024-02-24T13:15:13.811Z,97626.91
2024-02-24T13:17:40.636Z,97632.09
2024-02-24T13:20:07.350Z,97627.84
2024-02-24T13:22:33.894Z,97630.28
2024-02-24T13:25:00.538Z,97621.72
2024-02-24T13:27:27.084Z,97632.63
2024-02-24T13:29:53.803Z,97636.97
2024-02-24T13:32:20.621Z,97638.66
2024-02-24T13:34:47.254Z,97652.34
2024-02-24T13:37:14.752Z,97644.56
2024-02-24T13:39:41.418Z,97641.97
2024-02-24T13:42:08.083Z,97644.66
2024-02-24T13:44:34.685Z,97652.34
2024-02-24T13:47:01.301Z,97654.03
2024-02-24T13:49:27.942Z,97660.00
2024-02-24T13:51:55.142Z,97653.03
2024-02-24T13:54:24.151Z,97655.53
2024-02-24T13:56:50.733Z,97652.88
2024-02-24T13:59:17.360Z,97659.91
2024-02-24T14:01:43.955Z,97657.25
2024-02-24T14:04:10.640Z,97665.91
2024-02-24T14:06:38.009Z,97664.25
2024-02-24T14:09:07.831Z,97667.63
2024-02-24T14:11:35.232Z,97670.19
2024-02-24T14:14:01.922Z,97684.91
2024-02-24T14:16:28.677Z,97686.72
2024-02-24T14:18:55.482Z,97685.00
2024-02-24T14:21:24.545Z,97685.75
2024-02-24T14:23:54.806Z,97675.47
2024-02-24T14:26:21.630Z,97685.84
2024-02-24T14:28:59.503Z,97691.75
2024-02-24T14:31:28.295Z,97690.19
2024-02-24T14:33:55.065Z,97689.25
2024-02-24T14:36:21.798Z,97695.28
2024-02-24T14:38:48.422Z,97697.03
2024-02-24T14:41:15.145Z,97705.56
2024-02-24T14:43:41.689Z,97702.06
2024-02-24T14:46:08.262Z,97698.03
2024-02-24T14:48:36.262Z,97698.09
2024-02-24T14:51:03.634Z,97701.69
2024-02-24T14:53:30.536Z,97706.03
2024-02-24T14:55:57.192Z,97706.88
2024-02-24T14:58:23.796Z,97713.06
2024-02-24T15:00:50.466Z,97710.63
2024-02-24T15:03:17.261Z,97714.88
2024-02-24T15:05:44.307Z,97717.63
2024-02-24T15:08:11.079Z,97713.50
2024-02-24T15:10:37.769Z,97714.78
2024-02-24T15:13:04.645Z,97713.03
2024-02-24T15:15:31.611Z,97716.53
2024-02-24T15:17:59.768Z,97722.22
2024-02-24T15:20:26.653Z,97721.53
2024-02-24T15:22:53.388Z,97729.44
2024-02-24T15:25:20.116Z,97720.81
2024-02-24T15:27:46.705Z,97719.09
2024-02-24T15:30:13.922Z,97726.84
2024-02-24T15:32:40.602Z,97731.34
2024-02-24T15:35:07.799Z,97731.50
2024-02-24T15:37:37.430Z,97728.97
2024-02-24T15:40:09.120Z,97741.00
2024-02-24T15:42:39.269Z,97737.78
2024-02-24T15:45:06.379Z,97742.31
2024-02-24T15:47:32.999Z,97746.63
2024-02-24T15:49:59.614Z,97743.28
2024-02-24T15:52:26.218Z,97747.75
2024-02-24T15:54:52.840Z,97755.44
2024-02-24T15:57:19.414Z,97756.22
2024-02-24T15:59:46.096Z,97756.44
2024-02-24T16:02:12.718Z,97758.19
2024-02-24T16:04:39.380Z,97760.16
2024-02-24T16:07:08.158Z,97764.38
2024-02-24T16:09:36.853Z,97772.94
2024-02-24T16:12:04.746Z,97776.53
2024-02-24T16:14:31.373Z,97764.56
2024-02-24T16:16:57.915Z,97762.75
2024-02-24T16:19:24.615Z,97767.91
2024-02-24T16:21:51.288Z,97768.84
2024-02-24T16:24:17.870Z,97775.06
2024-02-24T16:26:44.453Z,97768.22
2024-02-24T16:29:11.089Z,97770.16
2024-02-24T16:31:37.692Z,97783.25
2024-02-24T16:34:04.573Z,97783.50
2024-02-24T16:36:33.077Z,97780.94
2024-02-24T16:39:00.002Z,97777.72
2024-02-24T16:41:26.712Z,97785.41
2024-02-24T16:43:53.241Z,97782.81
2024-02-24T16:46:19.833Z,97788.06
2024-02-24T16:48:46.747Z,97781.34
2024-02-24T16:51:13.503Z,97789.75
2024-02-24T16:53:40.139Z,97793.25
2024-02-24T16:56:07.114Z,97798.41
2024-02-24T16:58:34.170Z,97790.94
2024-02-24T17:01:01.115Z,97793.38
2024-02-24T17:03:27.989Z,97799.53
2024-02-24T17:05:54.999Z,97785.91
2024-02-24T17:08:22.999Z,97792.94
2024-02-24T17:10:49.649Z,97795.63
2024-02-24T17:13:16.780Z,97796.56
2024-02-24T17:15:43.516Z,97791.53
2024-02-24T17:18:17.731Z,97793.41
2024-02-24T17:20:45.370Z,97800.44
2024-02-24T17:23:13.592Z,97806.50
2024-02-24T17:25:40.344Z,97810.81
2024-02-24T17:28:08.145Z,97812.66
2024-02-24T17:30:36.991Z,97816.13
2024-02-24T17:33:05.006Z,97824.94
2024-02-24T17:35:32.027Z,97816.34
2024-02-24T17:37:59.997Z,97825.84
2024-02-24T17:40:26.636Z,97840.56
2024-02-24T17:42:53.143Z,97838.97
2024-02-24T17:45:19.711Z,97840.91
2024-02-24T17:47:46.370Z,97841.94
2024-02-24T17:50:12.953Z,97846.22
2024-02-24T17:52:39.545Z,97848.09
2024-02-24T17:55:06.667Z,97853.38
2024-02-24T17:57:33.494Z,97847.50
2024-02-24T18:00:00.218Z,97838.97
2024-02-24T18:02:26.935Z,97834.72
2024-02-24T18:04:53.790Z,97838.19
2024-02-24T18:07:20.372Z,97842.47
2024-02-24T18:09:46.949Z,97840.81
2024-02-24T18:12:13.649Z,97839.22
2024-02-24T18:14:42.735Z,97840.06
2024-02-24T18:17:09.509Z,97841.09
2024-02-24T18:19:36.262Z,97839.47
2024-02-24T18:22:02.939Z,97839.34
2024-02-24T18:24:29.560Z,97839.34
2024-02-24T18:26:56.458Z,97823.91
2024-02-24T18:29:23.095Z,97815.31
2024-02-24T18:31:49.640Z,97815.44
2024-02-24T18:34:17.394Z,97806.75
2024-02-24T18:36:44.141Z,97803.41
2024-02-24T18:39:10.781Z,97813.66
2024-02-24T18:41:37.442Z,97811.09
2024-02-24T18:44:04.828Z,97817.94
2024-02-24T18:46:31.455Z,97820.59
2024-02-24T18:48:58.419Z,97824.94
2024-02-24T18:51:25.131Z,97828.44
2024-02-24T18:53:51.676Z,97843.09
2024-02-24T18:56:18.345Z,97844.03
2024-02-24T18:58:45.005Z,97841.50
2024-02-24T19:01:11.812Z,97835.59
2024-02-24T19:03:38.551Z,97834.81
2024-02-24T19:06:05.754Z,97839.16
2024-02-24T19:08:32.407Z,97836.56
2024-02-24T19:10:59.646Z,97839.97
2024-02-24T19:13:26.224Z,97833.22
2024-02-24T19:15:54.148Z,97836.72
2024-02-24T19:18:21.304Z,97838.38
2024-02-24T19:20:48.000Z,97833.34
2024-02-24T19:23:16.647Z,97833.47
2024-02-24T19:25:49.078Z,97831.75
2024-02-24T19:28:15.834Z,97835.25
2024-02-24T19:30:42.433Z,97831.09
2024-02-24T19:33:10.334Z,97832.88
2024-02-24T19:35:39.096Z,97836.28
2024-02-24T19:38:08.356Z,97834.72
2024-02-24T19:40:34.927Z,97835.50
2024-02-24T19:43:01.443Z,97842.41
2024-02-24T19:45:28.028Z,97842.34
2024-02-24T19:47:54.938Z,97840.69
2024-02-24T19:50:21.619Z,97846.66
2024-02-24T19:52:48.276Z,97846.66
2024-02-24T19:55:16.101Z,97846.66
2024-02-24T19:57:43.314Z,97850.09
2024-02-24T20:00:10.398Z,97845.91
2024-02-24T20:02:36.977Z,97855.16
2024-02-24T20:05:03.773Z,97842.88
2024-02-24T20:07:30.419Z,97845.25
2024-02-24T20:09:57.069Z,97840.06
2024-02-24T20:12:23.991Z,97845.97
2024-02-24T20:14:50.970Z,97839.16
2024-02-24T20:17:18.691Z,97841.75
2024-02-24T20:19:47.265Z,97840.06
2024-02-24T20:22:14.368Z,97844.47
2024-02-24T20:24:41.257Z,97839.34
2024-02-24T20:27:07.972Z,97835.97
2024-02-24T20:29:34.689Z,97837.72
2024-02-24T20:32:01.269Z,97838.63
2024-02-24T20:34:27.979Z,97835.00
2024-02-24T20:36:54.642Z,97834.81
2024-02-24T20:39:21.556Z,97841.75
2024-02-24T20:41:48.120Z,97834.06
2024-02-24T20:44:14.899Z,97836.56
2024-02-24T20:46:45.789Z,97831.38
2024-02-24T20:49:13.768Z,97828.34
2024-02-24T20:51:40.414Z,97829.31
2024-02-24T20:54:07.061Z,97833.69
2024-02-24T20:56:33.792Z,97833.75
2024-02-24T20:59:00.417Z,97834.63
2024-02-24T21:01:28.251Z,97838.03
2024-02-24T21:03:55.355Z,97835.53
2024-02-24T21:06:22.043Z,97832.75
2024-02-24T21:08:48.793Z,97829.13
2024-02-24T21:11:15.477Z,97826.59
2024-02-24T21:13:42.008Z,97816.09
2024-02-24T21:16:08.542Z,97815.16
2024-02-24T21:18:35.269Z,97822.88
2024-02-24T21:21:02.005Z,97818.59
2024-02-24T21:23:28.681Z,97816.97
2024-02-24T21:25:55.283Z,97821.34
2024-02-24T21:28:21.859Z,97812.66
2024-02-24T21:30:48.674Z,97816.84
2024-02-24T21:33:15.466Z,97818.41
2024-02-24T21:35:43.209Z,97821.97
2024-02-24T21:38:09.795Z,97829.72
2024-02-24T21:40:36.365Z,97820.47
2024-02-24T21:43:05.044Z,97825.66
2024-02-24T21:45:32.251Z,97822.34
2024-02-24T21:47:59.170Z,97818.78
2024-02-24T21:50:25.982Z,97821.97
2024-02-24T21:52:53.554Z,97818.34
2024-02-24T21:55:23.243Z,97821.72
2024-02-24T21:57:50.081Z,97813.22
2024-02-24T22:00:19.607Z,97805.34
2024-02-24T22:02:46.587Z,97810.59
2024-02-24T22:05:14.307Z,97817.41
2024-02-24T22:07:41.974Z,97822.59
2024-02-24T22:10:09.734Z,97824.28
2024-02-24T22:12:36.410Z,97828.63
2024-02-24T22:15:03.149Z,97823.50
2024-02-24T22:17:29.912Z,97823.56
2024-02-24T22:19:56.629Z,97814.22
2024-02-24T22:22:23.189Z,97824.66
2024-02-24T22:24:49.774Z,97832.47
2024-02-24T22:27:16.398Z,97828.09
2024-02-24T22:29:43.597Z,97837.66
2024-02-24T22:32:10.238Z,97842.97
2024-02-24T22:34:37.031Z,97846.53
2024-02-24T22:37:03.866Z,97859.75
2024-02-24T22:39:30.454Z,97859.19
2024-02-24T22:41:57.027Z,97856.72
2024-02-24T22:44:23.610Z,97848.25
2024-02-24T22:46:50.777Z,97842.47
2024-02-24T22:49:17.560Z,97844.41
2024-02-24T22:51:44.299Z,97839.50
2024-02-24T22:54:11.927Z,97836.94
2024-02-24T22:56:38.952Z,97841.28
2024-02-24T22:59:05.680Z,97841.47
2024-02-24T23:01:32.458Z,97842.34
2024-02-24T23:03:59.984Z,97834.78
2024-02-24T23:06:26.877Z,97832.88
2024-02-24T23:08:53.977Z,97825.13
2024-02-24T23:11:29.460Z,97825.06
2024-02-24T23:14:04.019Z,97825.91
2024-02-24T23:16:30.743Z,97825.91
2024-02-24T23:19:00.148Z,97832.75
2024-02-24T23:21:30.480Z,97826.72
2024-02-24T23:23:58.051Z,97823.47
2024-02-24T23:26:24.724Z,97812.34
2024-02-24T23:28:51.316Z,97814.06
2024-02-24T23:31:17.893Z,97823.53
2024-02-24T23:33:44.707Z,97817.59
2024-02-24T23:36:11.491Z,97816.91
2024-02-24T23:38:38.061Z,97810.09
2024-02-24T23:41:04.584Z,97802.22
2024-02-24T23:43:31.166Z,97798.50
2024-02-24T23:45:57.759Z,97788.69
2024-02-24T23:48:24.482Z,97785.91
2024-02-24T23:50:51.143Z,97791.88
2024-02-24T23:53:17.752Z,97787.31
2024-02-24T23:55:44.334Z,97776.97
2024-02-24T23:58:10.947Z,97792.47
